• Join FlightAware (Why Join?)
  • Login
  • US Flag 
 
09:24PM EST


 

Airport Tracker/Info


-or-


 

Live Flight TrackerFlight Track Log ✈ DAL3995 ✈ 10-Oct-2013 ✈ KDTW - KAZO

Flight Track Log - Related Links

Times and Time Zones

All times are in EDT time to prevent confusion due to time zone crossing. See the DAL3995 flight status page for this flight to view local times or setup timezone preferences in your user account.

Time Position Orientation Groundspeed Altitude Reporting Facility
EDT Latitude Longitude Course Direction KTS MPH feet Rate Location/Type
08:07PM 42.2081 -83.3675 247° West 149 171 1,100  Level Cleveland Center
08:08PM 42.1997 -83.3944 247° West 164 189 2,100 1,740 Climbing Cleveland Center
08:09PM 42.2011 -83.4606 272° West 201 231 3,700 1,620 Climbing Cleveland Center
08:09PM 42.2022 -83.4681 281° West 219 252 3,800 1,020 Climbing Cleveland Center
08:10PM 42.2036 -83.5572 271° West 246 283 4,800 1,080 Climbing Cleveland Center
08:10PM 42.2053 -83.5644 287° West 279 321 4,900 180 Climbing Cleveland Center
08:11PM 42.2156 -83.6703 278° West 265 305 5,000 660 Climbing Cleveland Center
08:12PM 42.2231 -83.7581 277° West 265 305 6,300 1,080 Climbing Cleveland Center
08:13PM 42.2333 -83.8644 277° West 279 321 7,200 840 Climbing Cleveland Center
08:13PM 42.2331 -83.8611 96° East 275 316 7,200 1,200 Level Cleveland Center
08:14PM 42.2428 -83.9692 277° West 288 331 8,600 1,320 Climbing Cleveland Center
08:15PM 42.2553 -84.0992 277° West 294 338 10,000 660 Climbing Cleveland Center
08:16PM 42.2669 -84.2203 277° West 324 373 10,000  Level Cleveland Center
08:17PM 42.2608 -84.3556 267° West 359 413 10,000  Level Cleveland Center
08:18PM 42.2600 -84.4933 270° West 367 422 10,000  Level Cleveland Center
08:19PM 42.2567 -84.5942 267° West 370 426 10,000  Level Chicago Center
08:20PM 42.2575 -84.7350 271° West 375 432 10,000  Level Chicago Center
08:21PM 42.2719 -84.8742 278° West 376 433 10,000 -360 Level Chicago Center
08:22PM 42.2814 -84.9917 276° West 320 368 9,300 -1,380 Descending Chicago Center
08:23PM 42.2933 -85.1178 277° West 287 330 7,200 -1,800 Descending Chicago Center
08:24PM 42.2983 -85.2222 274° West 280 322 5,700 -1,500 Descending Chicago Center
08:25PM 42.2886 -85.3217 263° West 272 313 4,200 -1,500 Descending Chicago Center
08:26PM 42.2908 -85.4206 272° West 274 315 2,700 -900 Descending Chicago Center
08:27PM 42.3017 -85.5083 280° West 248 285 2,400 -540 Descending Chicago Center
08:28PM 42.2833 -85.5561 243° Southwest 188 216 1,700 -720 Descending Chicago Center
08:29PM 42.2431 -85.5536 177° South 143 165 1,000 -720 Descending Chicago Center
08:31PM 42.2333 -85.5500 180° South  Level FlightAware Approximate
08:38PM 42.2344 -85.5516 180° South  Level Estimated